sensor_id;sensor_type;location;lat;lon;timestamp;pressure;altitude;pressure_sealevel;temperature
68012;BMP180;54794;48.348;7.878;2022-12-08T00:02:32;98780.00;;;4.80
68012;BMP180;54794;48.348;7.878;2022-12-08T00:05:15;98783.00;;;4.70
68012;BMP180;54794;48.348;7.878;2022-12-08T00:08:37;98774.00;;;4.80
68012;BMP180;54794;48.348;7.878;2022-12-08T00:11:36;98780.00;;;4.90
68012;BMP180;54794;48.348;7.878;2022-12-08T00:14:47;98774.00;;;4.60
68012;BMP180;54794;48.348;7.878;2022-12-08T00:17:27;98777.00;;;4.40
68012;BMP180;54794;48.348;7.878;2022-12-08T00:20:16;98784.00;;;4.00
68012;BMP180;54794;48.348;7.878;2022-12-08T00:22:55;98767.00;;;4.10
68012;BMP180;54794;48.348;7.878;2022-12-08T00:25:44;98773.00;;;4.00
68012;BMP180;54794;48.348;7.878;2022-12-08T00:28:30;98777.00;;;4.10
68012;BMP180;54794;48.348;7.878;2022-12-08T00:31:12;98772.00;;;4.30
68012;BMP180;54794;48.348;7.878;2022-12-08T00:33:55;98766.00;;;4.20
68012;BMP180;54794;48.348;7.878;2022-12-08T00:36:41;98767.00;;;4.10
68012;BMP180;54794;48.348;7.878;2022-12-08T00:39:23;98765.00;;;4.30
68012;BMP180;54794;48.348;7.878;2022-12-08T00:42:08;98769.00;;;4.10
68012;BMP180;54794;48.348;7.878;2022-12-08T00:44:53;98766.00;;;4.00
68012;BMP180;54794;48.348;7.878;2022-12-08T00:47:35;98751.00;;;4.20
68012;BMP180;54794;48.348;7.878;2022-12-08T00:50:21;98744.00;;;4.20
68012;BMP180;54794;48.348;7.878;2022-12-08T00:53:00;98752.00;;;4.00
68012;BMP180;54794;48.348;7.878;2022-12-08T00:55:45;98751.00;;;4.30
68012;BMP180;54794;48.348;7.878;2022-12-08T00:58:31;98751.00;;;4.40
68012;BMP180;54794;48.348;7.878;2022-12-08T01:01:16;98756.00;;;4.30
68012;BMP180;54794;48.348;7.878;2022-12-08T01:03:55;98753.00;;;4.30
68012;BMP180;54794;48.348;7.878;2022-12-08T01:06:42;98768.00;;;4.30
68012;BMP180;54794;48.348;7.878;2022-12-08T01:09:24;98758.00;;;4.40
68012;BMP180;54794;48.348;7.878;2022-12-08T01:12:09;98762.00;;;4.40
68012;BMP180;54794;48.348;7.878;2022-12-08T01:14:51;98755.00;;;4.40
68012;BMP180;54794;48.348;7.878;2022-12-08T01:17:37;98754.00;;;4.40
68012;BMP180;54794;48.348;7.878;2022-12-08T01:20:23;98757.00;;;4.40
68012;BMP180;54794;48.348;7.878;2022-12-08T01:23:02;98755.00;;;4.30
68012;BMP180;54794;48.348;7.878;2022-12-08T01:25:29;98746.00;;;4.10
68012;BMP180;54794;48.348;7.878;2022-12-08T01:27:56;98760.00;;;3.80
68012;BMP180;54794;48.348;7.878;2022-12-08T01:30:22;98756.00;;;4.10
68012;BMP180;54794;48.348;7.878;2022-12-08T01:32:50;98763.00;;;4.10
68012;BMP180;54794;48.348;7.878;2022-12-08T01:35:16;98759.00;;;3.90
68012;BMP180;54794;48.348;7.878;2022-12-08T01:37:43;98760.00;;;4.00
68012;BMP180;54794;48.348;7.878;2022-12-08T01:40:10;98765.00;;;3.90
68012;BMP180;54794;48.348;7.878;2022-12-08T01:42:37;98762.00;;;4.00
68012;BMP180;54794;48.348;7.878;2022-12-08T01:45:33;98758.00;;;3.90
68012;BMP180;54794;48.348;7.878;2022-12-08T01:48:05;98759.00;;;3.90
68012;BMP180;54794;48.348;7.878;2022-12-08T01:50:37;98756.00;;;3.50
68012;BMP180;54794;48.348;7.878;2022-12-08T01:53:17;98762.00;;;3.80
68012;BMP180;54794;48.348;7.878;2022-12-08T01:55:51;98769.00;;;3.90
68012;BMP180;54794;48.348;7.878;2022-12-08T01:58:35;98767.00;;;3.60
68012;BMP180;54794;48.348;7.878;2022-12-08T02:01:03;98767.00;;;3.70
68012;BMP180;54794;48.348;7.878;2022-12-08T02:03:37;98758.00;;;3.70
68012;BMP180;54794;48.348;7.878;2022-12-08T02:06:07;98747.00;;;3.90
68012;BMP180;54794;48.348;7.878;2022-12-08T02:08:38;98760.00;;;3.80
68012;BMP180;54794;48.348;7.878;2022-12-08T02:11:10;98753.00;;;3.90
68012;BMP180;54794;48.348;7.878;2022-12-08T02:13:39;98751.00;;;4.00
68012;BMP180;54794;48.348;7.878;2022-12-08T02:22:13;98740.00;;;4.00
68012;BMP180;54794;48.348;7.878;2022-12-08T02:24:50;98741.00;;;3.60
68012;BMP180;54794;48.348;7.878;2022-12-08T02:37:03;98738.00;;;3.40
68012;BMP180;54794;48.348;7.878;2022-12-08T02:39:54;98738.00;;;3.50
68012;BMP180;54794;48.348;7.878;2022-12-08T02:42:37;98733.00;;;3.60
68012;BMP180;54794;48.348;7.878;2022-12-08T02:45:56;98731.00;;;3.50
68012;BMP180;54794;48.348;7.878;2022-12-08T02:48:29;98719.00;;;3.40
68012;BMP180;54794;48.348;7.878;2022-12-08T02:50:56;98725.00;;;3.50
68012;BMP180;54794;48.348;7.878;2022-12-08T02:53:22;98709.00;;;3.70
68012;BMP180;54794;48.348;7.878;2022-12-08T02:56:17;98707.00;;;3.70
68012;BMP180;54794;48.348;7.878;2022-12-08T03:04:48;98701.00;;;3.70
68012;BMP180;54794;48.348;7.878;2022-12-08T03:10:17;98693.00;;;3.60
68012;BMP180;54794;48.348;7.878;2022-12-08T03:12:53;98691.00;;;3.60
68012;BMP180;54794;48.348;7.878;2022-12-08T03:15:23;98684.00;;;3.70
68012;BMP180;54794;48.348;7.878;2022-12-08T03:17:56;98695.00;;;3.60
68012;BMP180;54794;48.348;7.878;2022-12-08T03:20:26;98693.00;;;3.60
68012;BMP180;54794;48.348;7.878;2022-12-08T03:22:57;98693.00;;;3.50
68012;BMP180;54794;48.348;7.878;2022-12-08T03:25:30;98686.00;;;3.60
68012;BMP180;54794;48.348;7.878;2022-12-08T03:27:59;98687.00;;;3.50
68012;BMP180;54794;48.348;7.878;2022-12-08T03:30:31;98697.00;;;3.10
68012;BMP180;54794;48.348;7.878;2022-12-08T03:33:06;98690.00;;;3.50
68012;BMP180;54794;48.348;7.878;2022-12-08T03:35:38;98685.00;;;3.70
68012;BMP180;54794;48.348;7.878;2022-12-08T03:38:10;98675.00;;;3.70
68012;BMP180;54794;48.348;7.878;2022-12-08T03:40:38;98667.00;;;3.50
68012;BMP180;54794;48.348;7.878;2022-12-08T03:43:06;98672.00;;;3.40
68012;BMP180;54794;48.348;7.878;2022-12-08T03:45:33;98666.00;;;3.60
68012;BMP180;54794;48.348;7.878;2022-12-08T03:48:00;98666.00;;;3.70
68012;BMP180;54794;48.348;7.878;2022-12-08T03:50:27;98657.00;;;3.80
68012;BMP180;54794;48.348;7.878;2022-12-08T03:52:54;98662.00;;;3.80
68012;BMP180;54794;48.348;7.878;2022-12-08T03:55:20;98650.00;;;3.90
68012;BMP180;54794;48.348;7.878;2022-12-08T03:57:47;98644.00;;;4.00
68012;BMP180;54794;48.348;7.878;2022-12-08T04:00:15;98645.00;;;3.90
68012;BMP180;54794;48.348;7.878;2022-12-08T04:02:42;98652.00;;;3.80
68012;BMP180;54794;48.348;7.878;2022-12-08T04:05:10;98649.00;;;3.90
68012;BMP180;54794;48.348;7.878;2022-12-08T04:07:36;98647.00;;;4.00
68012;BMP180;54794;48.348;7.878;2022-12-08T04:10:04;98635.00;;;4.00
68012;BMP180;54794;48.348;7.878;2022-12-08T04:12:32;98629.00;;;3.80
68012;BMP180;54794;48.348;7.878;2022-12-08T04:14:59;98623.00;;;3.90
68012;BMP180;54794;48.348;7.878;2022-12-08T04:17:25;98630.00;;;4.00
68012;BMP180;54794;48.348;7.878;2022-12-08T04:19:52;98628.00;;;4.00
68012;BMP180;54794;48.348;7.878;2022-12-08T04:22:19;98627.00;;;4.00
68012;BMP180;54794;48.348;7.878;2022-12-08T04:24:46;98631.00;;;4.00
68012;BMP180;54794;48.348;7.878;2022-12-08T04:27:13;98626.00;;;4.10
68012;BMP180;54794;48.348;7.878;2022-12-08T04:29:40;98628.00;;;3.90
68012;BMP180;54794;48.348;7.878;2022-12-08T04:32:07;98606.00;;;4.00
68012;BMP180;54794;48.348;7.878;2022-12-08T04:34:33;98624.00;;;4.00
68012;BMP180;54794;48.348;7.878;2022-12-08T04:37:00;98612.00;;;4.10
68012;BMP180;54794;48.348;7.878;2022-12-08T04:39:27;98622.00;;;4.00
68012;BMP180;54794;48.348;7.878;2022-12-08T04:41:54;98623.00;;;4.10
68012;BMP180;54794;48.348;7.878;2022-12-08T04:44:21;98617.00;;;4.10
68012;BMP180;54794;48.348;7.878;2022-12-08T04:46:48;98617.00;;;3.80
68012;BMP180;54794;48.348;7.878;2022-12-08T04:49:15;98615.00;;;3.80
68012;BMP180;54794;48.348;7.878;2022-12-08T04:51:41;98608.00;;;3.70
68012;BMP180;54794;48.348;7.878;2022-12-08T04:54:08;98610.00;;;3.80
68012;BMP180;54794;48.348;7.878;2022-12-08T04:56:36;98615.00;;;3.80
68012;BMP180;54794;48.348;7.878;2022-12-08T04:59:03;98617.00;;;3.90
68012;BMP180;54794;48.348;7.878;2022-12-08T05:01:29;98611.00;;;3.70
68012;BMP180;54794;48.348;7.878;2022-12-08T05:03:56;98601.00;;;3.90
68012;BMP180;54794;48.348;7.878;2022-12-08T05:06:23;98597.00;;;3.90
68012;BMP180;54794;48.348;7.878;2022-12-08T05:08:50;98602.00;;;4.00
68012;BMP180;54794;48.348;7.878;2022-12-08T05:11:17;98598.00;;;4.00
68012;BMP180;54794;48.348;7.878;2022-12-08T05:13:45;98606.00;;;3.90
68012;BMP180;54794;48.348;7.878;2022-12-08T05:16:14;98610.00;;;3.90
68012;BMP180;54794;48.348;7.878;2022-12-08T05:18:42;98610.00;;;3.80
68012;BMP180;54794;48.348;7.878;2022-12-08T05:21:09;98612.00;;;3.90
68012;BMP180;54794;48.348;7.878;2022-12-08T05:23:36;98613.00;;;3.90
68012;BMP180;54794;48.348;7.878;2022-12-08T05:26:03;98622.00;;;3.90
68012;BMP180;54794;48.348;7.878;2022-12-08T05:28:30;98614.00;;;4.00
68012;BMP180;54794;48.348;7.878;2022-12-08T05:31:08;98604.00;;;3.90
68012;BMP180;54794;48.348;7.878;2022-12-08T05:33:35;98609.00;;;4.10
68012;BMP180;54794;48.348;7.878;2022-12-08T05:36:02;98605.00;;;3.90
68012;BMP180;54794;48.348;7.878;2022-12-08T05:38:29;98605.00;;;4.00
68012;BMP180;54794;48.348;7.878;2022-12-08T05:40:56;98606.00;;;4.00
68012;BMP180;54794;48.348;7.878;2022-12-08T05:43:23;98606.00;;;4.00
68012;BMP180;54794;48.348;7.878;2022-12-08T05:45:50;98605.00;;;4.00
68012;BMP180;54794;48.348;7.878;2022-12-08T05:48:17;98604.00;;;3.70
68012;BMP180;54794;48.348;7.878;2022-12-08T05:50:48;98615.00;;;3.80
68012;BMP180;54794;48.348;7.878;2022-12-08T05:53:17;98601.00;;;3.70
68012;BMP180;54794;48.348;7.878;2022-12-08T05:55:45;98594.00;;;3.70
68012;BMP180;54794;48.348;7.878;2022-12-08T05:58:18;98592.00;;;4.00
68012;BMP180;54794;48.348;7.878;2022-12-08T06:00:46;98597.00;;;3.60
68012;BMP180;54794;48.348;7.878;2022-12-08T06:03:16;98590.00;;;3.80
68012;BMP180;54794;48.348;7.878;2022-12-08T06:05:45;98588.00;;;3.90
68012;BMP180;54794;48.348;7.878;2022-12-08T06:08:13;98590.00;;;4.00
68012;BMP180;54794;48.348;7.878;2022-12-08T06:10:42;98595.00;;;3.90
68012;BMP180;54794;48.348;7.878;2022-12-08T06:13:10;98587.00;;;3.90
68012;BMP180;54794;48.348;7.878;2022-12-08T06:15:38;98593.00;;;4.00
68012;BMP180;54794;48.348;7.878;2022-12-08T06:18:06;98584.00;;;3.80
68012;BMP180;54794;48.348;7.878;2022-12-08T06:20:33;98594.00;;;3.90
68012;BMP180;54794;48.348;7.878;2022-12-08T06:23:00;98588.00;;;3.80
68012;BMP180;54794;48.348;7.878;2022-12-08T06:25:27;98596.00;;;3.70
68012;BMP180;54794;48.348;7.878;2022-12-08T06:27:54;98590.00;;;3.80
68012;BMP180;54794;48.348;7.878;2022-12-08T06:30:21;98590.00;;;3.80
68012;BMP180;54794;48.348;7.878;2022-12-08T06:32:48;98591.00;;;3.80
68012;BMP180;54794;48.348;7.878;2022-12-08T06:35:15;98591.00;;;3.90
68012;BMP180;54794;48.348;7.878;2022-12-08T06:37:42;98598.00;;;3.80
68012;BMP180;54794;48.348;7.878;2022-12-08T06:40:09;98595.00;;;3.90
68012;BMP180;54794;48.348;7.878;2022-12-08T06:42:36;98592.00;;;3.80
68012;BMP180;54794;48.348;7.878;2022-12-08T06:45:11;98597.00;;;3.50
68012;BMP180;54794;48.348;7.878;2022-12-08T06:47:38;98588.00;;;3.60
68012;BMP180;54794;48.348;7.878;2022-12-08T06:50:07;98585.00;;;3.60
68012;BMP180;54794;48.348;7.878;2022-12-08T06:52:34;98592.00;;;3.50
68012;BMP180;54794;48.348;7.878;2022-12-08T06:55:11;98593.00;;;3.60
68012;BMP180;54794;48.348;7.878;2022-12-08T06:57:58;98597.00;;;3.80
68012;BMP180;54794;48.348;7.878;2022-12-08T07:00:25;98593.00;;;3.90
68012;BMP180;54794;48.348;7.878;2022-12-08T07:02:52;98594.00;;;4.00
68012;BMP180;54794;48.348;7.878;2022-12-08T07:05:19;98595.00;;;4.00
68012;BMP180;54794;48.348;7.878;2022-12-08T07:07:46;98585.00;;;4.00
68012;BMP180;54794;48.348;7.878;2022-12-08T07:10:12;98598.00;;;4.10
68012;BMP180;54794;48.348;7.878;2022-12-08T07:12:39;98598.00;;;4.20
68012;BMP180;54794;48.348;7.878;2022-12-08T07:15:12;98600.00;;;4.10
68012;BMP180;54794;48.348;7.878;2022-12-08T07:17:57;98595.00;;;4.20
68012;BMP180;54794;48.348;7.878;2022-12-08T07:20:26;98603.00;;;4.10
68012;BMP180;54794;48.348;7.878;2022-12-08T07:22:53;98596.00;;;4.00
68012;BMP180;54794;48.348;7.878;2022-12-08T07:25:21;98599.00;;;4.00
68012;BMP180;54794;48.348;7.878;2022-12-08T07:27:48;98598.00;;;4.20
68012;BMP180;54794;48.348;7.878;2022-12-08T07:30:17;98608.00;;;4.20
68012;BMP180;54794;48.348;7.878;2022-12-08T07:32:44;98605.00;;;4.20
68012;BMP180;54794;48.348;7.878;2022-12-08T07:35:11;98612.00;;;4.20
68012;BMP180;54794;48.348;7.878;2022-12-08T07:37:39;98612.00;;;4.20
68012;BMP180;54794;48.348;7.878;2022-12-08T07:40:08;98612.00;;;4.20
68012;BMP180;54794;48.348;7.878;2022-12-08T07:42:35;98607.00;;;4.20
68012;BMP180;54794;48.348;7.878;2022-12-08T07:45:03;98616.00;;;4.20
68012;BMP180;54794;48.348;7.878;2022-12-08T07:47:30;98612.00;;;4.20
68012;BMP180;54794;48.348;7.878;2022-12-08T07:49:56;98618.00;;;4.30
68012;BMP180;54794;48.348;7.878;2022-12-08T07:52:23;98615.00;;;4.30
68012;BMP180;54794;48.348;7.878;2022-12-08T07:54:50;98606.00;;;4.30
68012;BMP180;54794;48.348;7.878;2022-12-08T07:57:17;98609.00;;;4.40
68012;BMP180;54794;48.348;7.878;2022-12-08T07:59:44;98613.00;;;4.50
68012;BMP180;54794;48.348;7.878;2022-12-08T08:02:19;98607.00;;;4.50
68012;BMP180;54794;48.348;7.878;2022-12-08T08:04:51;98597.00;;;4.50
68012;BMP180;54794;48.348;7.878;2022-12-08T08:07:19;98600.00;;;4.50
68012;BMP180;54794;48.348;7.878;2022-12-08T08:09:45;98598.00;;;4.50
68012;BMP180;54794;48.348;7.878;2022-12-08T08:12:12;98594.00;;;4.50
68012;BMP180;54794;48.348;7.878;2022-12-08T08:14:58;98603.00;;;4.20
68012;BMP180;54794;48.348;7.878;2022-12-08T08:17:26;98597.00;;;4.30
68012;BMP180;54794;48.348;7.878;2022-12-08T08:19:53;98597.00;;;4.40
68012;BMP180;54794;48.348;7.878;2022-12-08T08:22:20;98594.00;;;4.20
68012;BMP180;54794;48.348;7.878;2022-12-08T08:24:46;98599.00;;;4.30
68012;BMP180;54794;48.348;7.878;2022-12-08T08:27:14;98599.00;;;4.20
68012;BMP180;54794;48.348;7.878;2022-12-08T08:29:40;98594.00;;;4.40
68012;BMP180;54794;48.348;7.878;2022-12-08T08:32:07;98594.00;;;4.60
68012;BMP180;54794;48.348;7.878;2022-12-08T08:34:34;98591.00;;;4.60
68012;BMP180;54794;48.348;7.878;2022-12-08T08:37:01;98594.00;;;4.20
68012;BMP180;54794;48.348;7.878;2022-12-08T08:39:28;98590.00;;;4.10
68012;BMP180;54794;48.348;7.878;2022-12-08T08:41:57;98588.00;;;4.00
68012;BMP180;54794;48.348;7.878;2022-12-08T08:44:24;98591.00;;;4.20
68012;BMP180;54794;48.348;7.878;2022-12-08T08:46:51;98593.00;;;4.10
68012;BMP180;54794;48.348;7.878;2022-12-08T08:49:18;98586.00;;;4.00
68012;BMP180;54794;48.348;7.878;2022-12-08T08:51:46;98578.00;;;4.20
68012;BMP180;54794;48.348;7.878;2022-12-08T08:54:12;98577.00;;;4.10
68012;BMP180;54794;48.348;7.878;2022-12-08T08:56:40;98572.00;;;4.30
68012;BMP180;54794;48.348;7.878;2022-12-08T08:59:08;98577.00;;;4.20
68012;BMP180;54794;48.348;7.878;2022-12-08T09:01:35;98564.00;;;4.40
68012;BMP180;54794;48.348;7.878;2022-12-08T09:04:02;98565.00;;;4.40
68012;BMP180;54794;48.348;7.878;2022-12-08T09:06:29;98556.00;;;4.50
68012;BMP180;54794;48.348;7.878;2022-12-08T09:08:56;98561.00;;;4.60
68012;BMP180;54794;48.348;7.878;2022-12-08T09:11:23;98565.00;;;4.60
68012;BMP180;54794;48.348;7.878;2022-12-08T09:13:52;98556.00;;;4.40
68012;BMP180;54794;48.348;7.878;2022-12-08T09:16:21;98558.00;;;4.30
68012;BMP180;54794;48.348;7.878;2022-12-08T09:18:48;98557.00;;;4.50
68012;BMP180;54794;48.348;7.878;2022-12-08T09:21:22;98554.00;;;4.60
68012;BMP180;54794;48.348;7.878;2022-12-08T09:23:55;98560.00;;;4.60
68012;BMP180;54794;48.348;7.878;2022-12-08T09:26:23;98565.00;;;4.40
68012;BMP180;54794;48.348;7.878;2022-12-08T09:28:51;98557.00;;;4.60
68012;BMP180;54794;48.348;7.878;2022-12-08T09:31:20;98560.00;;;4.50
68012;BMP180;54794;48.348;7.878;2022-12-08T09:33:49;98562.00;;;4.50
68012;BMP180;54794;48.348;7.878;2022-12-08T09:36:19;98553.00;;;4.60
68012;BMP180;54794;48.348;7.878;2022-12-08T09:38:46;98553.00;;;4.70
68012;BMP180;54794;48.348;7.878;2022-12-08T09:44:39;98543.00;;;4.90
68012;BMP180;54794;48.348;7.878;2022-12-08T09:50:17;98543.00;;;5.00
68012;BMP180;54794;48.348;7.878;2022-12-08T09:53:04;98538.00;;;5.10
68012;BMP180;54794;48.348;7.878;2022-12-08T09:56:08;98538.00;;;5.10
68012;BMP180;54794;48.348;7.878;2022-12-08T09:59:03;98529.00;;;5.10
68012;BMP180;54794;48.348;7.878;2022-12-08T10:01:36;98536.00;;;5.20
68012;BMP180;54794;48.348;7.878;2022-12-08T10:04:26;98529.00;;;5.20
68012;BMP180;54794;48.348;7.878;2022-12-08T10:15:40;98510.00;;;5.20
68012;BMP180;54794;48.348;7.878;2022-12-08T10:18:24;98496.00;;;5.50
68012;BMP180;54794;48.348;7.878;2022-12-08T10:20:57;98498.00;;;5.40
68012;BMP180;54794;48.348;7.878;2022-12-08T10:23:36;98495.00;;;5.50
68012;BMP180;54794;48.348;7.878;2022-12-08T10:26:11;98510.00;;;5.50
68012;BMP180;54794;48.348;7.878;2022-12-08T10:28:38;98502.00;;;5.50
68012;BMP180;54794;48.348;7.878;2022-12-08T10:31:23;98501.00;;;5.30
68012;BMP180;54794;48.348;7.878;2022-12-08T10:33:59;98496.00;;;5.40
68012;BMP180;54794;48.348;7.878;2022-12-08T10:36:55;98495.00;;;5.40
68012;BMP180;54794;48.348;7.878;2022-12-08T10:47:41;98482.00;;;5.70
68012;BMP180;54794;48.348;7.878;2022-12-08T10:53:20;98477.00;;;5.80
68012;BMP180;54794;48.348;7.878;2022-12-08T10:55:51;98467.00;;;5.80
68012;BMP180;54794;48.348;7.878;2022-12-08T10:58:32;98474.00;;;5.90
68012;BMP180;54794;48.348;7.878;2022-12-08T11:01:19;98461.00;;;6.00
68012;BMP180;54794;48.348;7.878;2022-12-08T11:03:54;98460.00;;;5.60
68012;BMP180;54794;48.348;7.878;2022-12-08T11:06:38;98457.00;;;5.70
68012;BMP180;54794;48.348;7.878;2022-12-08T11:09:33;98449.00;;;5.90
68012;BMP180;54794;48.348;7.878;2022-12-08T11:12:14;98443.00;;;6.10
68012;BMP180;54794;48.348;7.878;2022-12-08T11:22:45;98432.00;;;6.10
68012;BMP180;54794;48.348;7.878;2022-12-08T11:25:28;98417.00;;;6.00
68012;BMP180;54794;48.348;7.878;2022-12-08T11:28:00;98415.00;;;6.10
68012;BMP180;54794;48.348;7.878;2022-12-08T11:30:43;98412.00;;;6.10
68012;BMP180;54794;48.348;7.878;2022-12-08T11:33:27;98416.00;;;5.90
68012;BMP180;54794;48.348;7.878;2022-12-08T11:36:03;98415.00;;;5.80
68012;BMP180;54794;48.348;7.878;2022-12-08T11:38:32;98418.00;;;6.10
68012;BMP180;54794;48.348;7.878;2022-12-08T11:41:21;98399.00;;;6.20
68012;BMP180;54794;48.348;7.878;2022-12-08T11:46:39;98403.00;;;5.70
68012;BMP180;54794;48.348;7.878;2022-12-08T11:49:12;98410.00;;;5.70
68012;BMP180;54794;48.348;7.878;2022-12-08T11:57:28;98388.00;;;6.20
68012;BMP180;54794;48.348;7.878;2022-12-08T11:59:57;98392.00;;;6.30
68012;BMP180;54794;48.348;7.878;2022-12-08T12:02:34;98372.00;;;6.30
68012;BMP180;54794;48.348;7.878;2022-12-08T12:11:13;98366.00;;;5.90
68012;BMP180;54794;48.348;7.878;2022-12-08T12:15:19;98372.00;;;5.90
68012;BMP180;54794;48.348;7.878;2022-12-08T12:18:00;98367.00;;;6.00
68012;BMP180;54794;48.348;7.878;2022-12-08T12:20:41;98365.00;;;6.10
68012;BMP180;54794;48.348;7.878;2022-12-08T12:23:17;98368.00;;;6.10
68012;BMP180;54794;48.348;7.878;2022-12-08T12:26:00;98358.00;;;6.20
68012;BMP180;54794;48.348;7.878;2022-12-08T12:28:40;98361.00;;;6.10
68012;BMP180;54794;48.348;7.878;2022-12-08T12:31:13;98357.00;;;6.20
68012;BMP180;54794;48.348;7.878;2022-12-08T12:33:45;98363.00;;;6.00
68012;BMP180;54794;48.348;7.878;2022-12-08T12:36:13;98356.00;;;6.10
68012;BMP180;54794;48.348;7.878;2022-12-08T12:38:46;98351.00;;;6.10
68012;BMP180;54794;48.348;7.878;2022-12-08T12:41:34;98358.00;;;6.20
68012;BMP180;54794;48.348;7.878;2022-12-08T12:44:23;98359.00;;;5.80
68012;BMP180;54794;48.348;7.878;2022-12-08T12:57:57;98339.00;;;6.10
68012;BMP180;54794;48.348;7.878;2022-12-08T13:00:26;98331.00;;;6.30
68012;BMP180;54794;48.348;7.878;2022-12-08T13:02:57;98330.00;;;6.20
68012;BMP180;54794;48.348;7.878;2022-12-08T13:05:31;98329.00;;;6.60
68012;BMP180;54794;48.348;7.878;2022-12-08T13:08:25;98338.00;;;6.30
68012;BMP180;54794;48.348;7.878;2022-12-08T13:11:02;98334.00;;;6.40
68012;BMP180;54794;48.348;7.878;2022-12-08T13:13:30;98332.00;;;5.90
68012;BMP180;54794;48.348;7.878;2022-12-08T13:18:51;98324.00;;;6.50
68012;BMP180;54794;48.348;7.878;2022-12-08T13:21:23;98323.00;;;6.50
68012;BMP180;54794;48.348;7.878;2022-12-08T13:24:12;98323.00;;;6.70
68012;BMP180;54794;48.348;7.878;2022-12-08T13:26:45;98327.00;;;6.30
68012;BMP180;54794;48.348;7.878;2022-12-08T13:29:25;98327.00;;;6.00
68012;BMP180;54794;48.348;7.878;2022-12-08T13:31:58;98324.00;;;6.50
68012;BMP180;54794;48.348;7.878;2022-12-08T13:42:35;98323.00;;;6.70
68012;BMP180;54794;48.348;7.878;2022-12-08T13:48:05;98323.00;;;6.00
68012;BMP180;54794;48.348;7.878;2022-12-08T13:51:20;98323.00;;;6.00
68012;BMP180;54794;48.348;7.878;2022-12-08T13:54:31;98321.00;;;5.90
68012;BMP180;54794;48.348;7.878;2022-12-08T13:57:26;98316.00;;;6.50
68012;BMP180;54794;48.348;7.878;2022-12-08T14:00:01;98311.00;;;6.90
68012;BMP180;54794;48.348;7.878;2022-12-08T14:02:38;98304.00;;;7.00
68012;BMP180;54794;48.348;7.878;2022-12-08T14:05:16;98306.00;;;7.00
68012;BMP180;54794;48.348;7.878;2022-12-08T14:07:53;98305.00;;;6.90
68012;BMP180;54794;48.348;7.878;2022-12-08T14:10:25;98302.00;;;7.20
68012;BMP180;54794;48.348;7.878;2022-12-08T14:13:03;98303.00;;;7.10
68012;BMP180;54794;48.348;7.878;2022-12-08T14:15:34;98299.00;;;7.20
68012;BMP180;54794;48.348;7.878;2022-12-08T14:18:18;98309.00;;;6.90
68012;BMP180;54794;48.348;7.878;2022-12-08T14:21:03;98301.00;;;7.20
68012;BMP180;54794;48.348;7.878;2022-12-08T14:23:47;98290.00;;;7.60
68012;BMP180;54794;48.348;7.878;2022-12-08T14:26:14;98297.00;;;7.70
68012;BMP180;54794;48.348;7.878;2022-12-08T14:28:45;98286.00;;;7.40
68012;BMP180;54794;48.348;7.878;2022-12-08T14:31:12;98299.00;;;7.60
68012;BMP180;54794;48.348;7.878;2022-12-08T14:33:41;98292.00;;;7.50
68012;BMP180;54794;48.348;7.878;2022-12-08T14:36:09;98297.00;;;7.10
68012;BMP180;54794;48.348;7.878;2022-12-08T14:38:36;98295.00;;;6.40
68012;BMP180;54794;48.348;7.878;2022-12-08T14:41:10;98290.00;;;6.60
68012;BMP180;54794;48.348;7.878;2022-12-08T14:43:37;98293.00;;;6.50
68012;BMP180;54794;48.348;7.878;2022-12-08T14:46:21;98286.00;;;6.40
68012;BMP180;54794;48.348;7.878;2022-12-08T14:48:48;98288.00;;;6.40
68012;BMP180;54794;48.348;7.878;2022-12-08T14:51:27;98292.00;;;6.30
68012;BMP180;54794;48.348;7.878;2022-12-08T14:54:12;98295.00;;;6.10
68012;BMP180;54794;48.348;7.878;2022-12-08T14:56:51;98307.00;;;6.00
68012;BMP180;54794;48.348;7.878;2022-12-08T14:59:28;98293.00;;;6.00
68012;BMP180;54794;48.348;7.878;2022-12-08T15:04:45;98294.00;;;6.20
68012;BMP180;54794;48.348;7.878;2022-12-08T15:07:18;98288.00;;;6.20
68012;BMP180;54794;48.348;7.878;2022-12-08T15:10:05;98303.00;;;6.00
68012;BMP180;54794;48.348;7.878;2022-12-08T15:12:33;98291.00;;;6.20
68012;BMP180;54794;48.348;7.878;2022-12-08T15:15:16;98299.00;;;6.30
68012;BMP180;54794;48.348;7.878;2022-12-08T15:18:12;98302.00;;;6.00
68012;BMP180;54794;48.348;7.878;2022-12-08T15:20:45;98293.00;;;6.00
68012;BMP180;54794;48.348;7.878;2022-12-08T15:23:31;98304.00;;;5.90
68012;BMP180;54794;48.348;7.878;2022-12-08T15:25:59;98304.00;;;5.90
68012;BMP180;54794;48.348;7.878;2022-12-08T15:28:28;98299.00;;;6.00
68012;BMP180;54794;48.348;7.878;2022-12-08T15:30:57;98301.00;;;5.80
68012;BMP180;54794;48.348;7.878;2022-12-08T15:33:25;98291.00;;;5.90
68012;BMP180;54794;48.348;7.878;2022-12-08T15:35:52;98282.00;;;5.90
68012;BMP180;54794;48.348;7.878;2022-12-08T15:38:24;98292.00;;;5.80
68012;BMP180;54794;48.348;7.878;2022-12-08T15:40:54;98283.00;;;5.70
68012;BMP180;54794;48.348;7.878;2022-12-08T15:43:21;98281.00;;;5.80
68012;BMP180;54794;48.348;7.878;2022-12-08T15:45:49;98284.00;;;5.80
68012;BMP180;54794;48.348;7.878;2022-12-08T15:48:28;98284.00;;;5.90
68012;BMP180;54794;48.348;7.878;2022-12-08T15:50:57;98280.00;;;5.90
68012;BMP180;54794;48.348;7.878;2022-12-08T15:53:24;98270.00;;;6.00
68012;BMP180;54794;48.348;7.878;2022-12-08T15:55:51;98269.00;;;5.90
68012;BMP180;54794;48.348;7.878;2022-12-08T15:58:38;98272.00;;;5.90
68012;BMP180;54794;48.348;7.878;2022-12-08T16:01:41;98259.00;;;5.90
68012;BMP180;54794;48.348;7.878;2022-12-08T16:13:16;98270.00;;;5.00
68012;BMP180;54794;48.348;7.878;2022-12-08T16:16:28;98265.00;;;5.00
68012;BMP180;54794;48.348;7.878;2022-12-08T16:19:43;98259.00;;;5.30
68012;BMP180;54794;48.348;7.878;2022-12-08T16:22:19;98265.00;;;5.20
68012;BMP180;54794;48.348;7.878;2022-12-08T16:25:08;98261.00;;;4.90
68012;BMP180;54794;48.348;7.878;2022-12-08T16:27:55;98267.00;;;4.80
68012;BMP180;54794;48.348;7.878;2022-12-08T16:30:34;98258.00;;;5.10
68012;BMP180;54794;48.348;7.878;2022-12-08T16:36:38;98262.00;;;5.00
68012;BMP180;54794;48.348;7.878;2022-12-08T16:39:06;98269.00;;;5.00
68012;BMP180;54794;48.348;7.878;2022-12-08T16:41:34;98273.00;;;5.10
68012;BMP180;54794;48.348;7.878;2022-12-08T16:44:19;98274.00;;;4.80
68012;BMP180;54794;48.348;7.878;2022-12-08T16:46:46;98267.00;;;4.80
68012;BMP180;54794;48.348;7.878;2022-12-08T16:49:13;98279.00;;;4.90
68012;BMP180;54794;48.348;7.878;2022-12-08T16:51:42;98272.00;;;4.90
68012;BMP180;54794;48.348;7.878;2022-12-08T16:54:09;98261.00;;;4.90
68012;BMP180;54794;48.348;7.878;2022-12-08T16:58:03;98254.00;;;5.00